Terminal Aerodrome Forecast
Issued by NWS

Home | Current Version | Previous Version | Text Only | Print | Product List | Glossary On
Versions: 1 2 3 4 5 6 7 8 9 10 11 12 13 14 15 16 17
000
FTUS44 KLZK 260200 AAA
TAFADF
TAF AMD
KADF 260202Z 2602/2624 00000KT 5SM BR SKC
      TEMPO 2602/2606 2SM BR
     FM260600 00000KT 3SM BR SKC
      TEMPO 2606/2610 1/2SM FG VV001
     FM261000 00000KT 1/2SM FG VV001
      TEMPO 2612/2614 3SM BR SCT005
     FM261400 21007KT P6SM SKC
      TEMPO 2614/2615 5SM BR=

USA.gov is the U.S. government's official web portal to all federal, state and local government web resources and services.